createdAt,value
2023-04-28T00:01:45.897Z,99151.05
2023-04-28T00:04:13.587Z,99160.07
2023-04-28T00:06:41.355Z,99163.23
2023-04-28T00:09:12.117Z,99164.08
2023-04-28T00:11:39.273Z,99167.23
2023-04-28T00:14:06.493Z,99172.94
2023-04-28T00:16:33.909Z,99171.96
2023-04-28T00:19:01.181Z,99181.88
2023-04-28T00:21:29.014Z,99181.98
2023-04-28T00:23:56.379Z,99188.30
2023-04-28T00:26:23.767Z,99191.33
2023-04-28T00:28:50.970Z,99199.42
2023-04-28T00:31:18.174Z,99205.02
2023-04-28T00:33:45.450Z,99210.54
2023-04-28T00:36:12.712Z,99215.86
2023-04-28T00:38:39.865Z,99216.02
2023-04-28T00:41:07.504Z,99225.64
2023-04-28T00:43:45.638Z,99231.12
2023-04-28T00:46:18.123Z,99240.77
2023-04-28T00:48:44.906Z,99242.15
2023-04-28T00:51:11.747Z,99242.98
2023-04-28T00:53:38.721Z,99241.80
2023-04-28T00:56:06.218Z,99251.45
2023-04-28T00:58:33.088Z,99261.98
2023-04-28T01:01:08.178Z,99271.15
2023-04-28T01:03:38.127Z,99276.89
2023-04-28T01:06:06.462Z,99290.30
2023-04-28T01:08:34.592Z,99293.69
2023-04-28T01:11:02.330Z,99302.81
2023-04-28T01:14:00.396Z,99305.85
2023-04-28T01:16:28.738Z,99313.40
2023-04-28T01:18:56.461Z,99321.64
2023-04-28T01:21:32.829Z,99325.96
2023-04-28T01:24:06.814Z,99331.66
2023-04-28T01:26:34.231Z,99339.36
2023-04-28T01:29:01.856Z,99354.33
2023-04-28T01:31:31.729Z,99365.34
2023-04-28T01:34:00.654Z,99378.36
2023-04-28T01:36:28.888Z,99391.20
2023-04-28T01:38:56.583Z,99400.33
2023-04-28T01:41:23.995Z,99408.73
2023-04-28T01:43:51.481Z,99410.67
2023-04-28T01:46:18.897Z,99420.20
2023-04-28T01:48:46.540Z,99428.96
2023-04-28T01:51:14.196Z,99438.71
2023-04-28T01:53:42.020Z,99452.25
2023-04-28T01:56:09.700Z,99470.40
2023-04-28T01:58:37.392Z,99482.16
2023-04-28T02:01:06.864Z,99494.95
2023-04-28T02:03:34.998Z,99508.13
2023-04-28T02:06:03.030Z,99521.06
2023-04-28T02:08:30.576Z,99538.75
2023-04-28T02:10:58.464Z,99552.83
2023-04-28T02:13:26.071Z,99569.30
2023-04-28T02:15:53.759Z,99584.27
2023-04-28T02:18:22.086Z,99597.05
2023-04-28T02:20:49.778Z,99609.98
2023-04-28T02:23:18.710Z,99619.53
2023-04-28T02:25:46.188Z,99631.67
2023-04-28T02:28:14.295Z,99647.14
2023-04-28T02:30:41.766Z,99660.04
2023-04-28T02:33:09.171Z,99674.36
2023-04-28T02:35:36.709Z,99688.98
2023-04-28T02:38:04.258Z,99704.48
2023-04-28T02:40:31.800Z,99720.72
2023-04-28T02:42:59.171Z,99739.45
2023-04-28T02:45:26.658Z,99750.09
2023-04-28T02:47:54.730Z,99759.40
2023-04-28T02:50:23.688Z,99767.02
2023-04-28T02:52:50.985Z,99773.47
2023-04-28T02:55:24.317Z,99776.21
2023-04-28T02:57:52.142Z,99786.02
2023-04-28T03:00:19.757Z,99787.10
2023-04-28T03:02:48.430Z,99781.20
2023-04-28T03:05:16.085Z,99775.04
2023-04-28T03:07:43.484Z,99760.39
2023-04-28T03:10:11.058Z,99736.77
2023-04-28T03:12:38.597Z,99671.42
2023-04-28T03:15:09.105Z,99622.36
2023-04-28T03:17:39.382Z,99562.84
2023-04-28T03:20:09.405Z,99446.60
2023-04-28T03:22:36.844Z,99350.27
2023-04-28T03:25:06.056Z,99289.34
2023-04-28T03:27:36.295Z,99249.59
2023-04-28T03:30:04.456Z,99224.17
2023-04-28T03:32:32.127Z,99208.05
2023-04-28T03:34:59.710Z,99195.97
2023-04-28T03:37:27.483Z,99198.46
2023-04-28T03:39:54.803Z,99192.30
2023-04-28T03:42:22.350Z,99160.80
2023-04-28T03:45:06.623Z,99131.73
2023-04-28T03:47:34.195Z,99107.59
2023-04-28T03:50:01.574Z,99076.65
2023-04-28T03:52:28.912Z,99067.94
2023-04-28T03:54:56.673Z,99055.46
2023-04-28T03:57:24.160Z,99073.35
2023-04-28T03:59:52.377Z,99103.63
2023-04-28T04:02:19.846Z,99120.81
2023-04-28T04:04:47.635Z,99158.09
2023-04-28T04:07:15.375Z,99173.20
2023-04-28T04:09:42.612Z,99176.75
2023-04-28T04:12:10.258Z,99149.07
2023-04-28T04:14:37.673Z,99136.45
2023-04-28T04:17:05.072Z,99190.17
2023-04-28T04:19:32.501Z,99237.22
2023-04-28T04:22:00.064Z,99258.02
2023-04-28T04:24:27.546Z,99255.87
2023-04-28T04:26:54.828Z,99263.83
2023-04-28T04:29:32.470Z,99266.53
2023-04-28T04:32:01.516Z,99271.58
2023-04-28T04:34:29.495Z,99285.41
2023-04-28T04:36:57.376Z,99300.00
2023-04-28T04:39:25.245Z,99305.60
2023-04-28T04:41:53.416Z,99310.20
2023-04-28T04:44:32.222Z,99316.42
2023-04-28T04:47:00.137Z,99324.02
2023-04-28T04:49:27.473Z,99340.82
2023-04-28T04:51:55.232Z,99352.39
2023-04-28T04:54:22.756Z,99364.81
2023-04-28T04:56:50.330Z,99370.85
2023-04-28T04:59:23.212Z,99364.46
2023-04-28T05:02:04.132Z,99365.45
2023-04-28T05:04:31.931Z,99372.80
2023-04-28T05:06:59.500Z,99385.29
2023-04-28T05:09:27.355Z,99402.21
2023-04-28T05:11:54.753Z,99408.83
2023-04-28T05:14:22.760Z,99413.82
2023-04-28T05:16:51.333Z,99418.37
2023-04-28T05:19:25.571Z,99432.56
2023-04-28T05:21:55.044Z,99443.89
2023-04-28T05:24:25.921Z,99459.38
2023-04-28T05:26:54.396Z,99466.71
2023-04-28T05:29:22.243Z,99477.82
2023-04-28T05:31:49.701Z,99485.50
2023-04-28T05:34:17.673Z,99493.89
2023-04-28T05:36:45.668Z,99494.77
2023-04-28T05:39:13.226Z,99497.54
2023-04-28T05:41:41.478Z,99502.75
2023-04-28T05:44:09.361Z,99511.91
2023-04-28T05:46:37.184Z,99527.88
2023-04-28T05:49:04.366Z,99535.34
2023-04-28T05:51:34.141Z,99546.18
2023-04-28T05:54:01.836Z,99559.36
2023-04-28T05:56:29.394Z,99564.09
2023-04-28T05:58:56.585Z,99573.55
2023-04-28T06:01:23.560Z,99577.05
2023-04-28T06:03:50.880Z,99585.79
2023-04-28T06:06:18.395Z,99591.34
2023-04-28T06:08:50.414Z,99589.98
2023-04-28T06:11:19.521Z,99587.67
2023-04-28T06:13:47.132Z,99590.80
2023-04-28T06:16:13.976Z,99596.13
2023-04-28T06:18:41.031Z,99600.67
2023-04-28T06:21:08.320Z,99606.50
2023-04-28T06:23:36.553Z,99613.27
2023-04-28T06:26:04.195Z,99619.05
2023-04-28T06:28:31.668Z,99621.79
2023-04-28T06:31:00.152Z,99627.23
2023-04-28T06:33:27.422Z,99634.45
2023-04-28T06:35:54.657Z,99648.38
2023-04-28T06:38:21.912Z,99667.80
2023-04-28T06:40:49.152Z,99683.09
2023-04-28T06:43:16.632Z,99695.15
2023-04-28T06:46:16.396Z,99712.60
2023-04-28T06:48:43.836Z,99718.71
2023-04-28T06:51:11.328Z,99725.58
2023-04-28T06:53:39.169Z,99738.08
2023-04-28T06:56:11.057Z,99763.05
2023-04-28T06:58:39.078Z,99788.09
2023-04-28T07:01:06.504Z,99802.92
2023-04-28T07:03:34.136Z,99823.14
2023-04-28T07:06:01.590Z,99837.23
2023-04-28T07:08:30.821Z,99854.62
2023-04-28T07:10:58.230Z,99868.83
2023-04-28T07:13:25.489Z,99879.27
2023-04-28T07:15:52.849Z,99890.59
2023-04-28T07:18:20.194Z,99909.12
2023-04-28T07:20:48.517Z,99926.50
2023-04-28T07:23:16.119Z,99932.09
2023-04-28T07:25:43.572Z,99939.20
2023-04-28T07:28:10.910Z,99947.13
2023-04-28T07:30:38.257Z,99950.52
2023-04-28T07:33:05.617Z,99951.84
2023-04-28T07:35:33.222Z,99952.55
2023-04-28T07:38:00.525Z,99931.05
2023-04-28T07:40:27.774Z,99909.19
2023-04-28T07:42:55.052Z,99892.19
2023-04-28T07:45:22.654Z,99880.64
2023-04-28T07:47:50.213Z,99869.95
2023-04-28T07:50:18.188Z,99859.67
2023-04-28T07:52:45.788Z,99855.30
2023-04-28T07:55:13.186Z,99846.04
2023-04-28T07:57:41.311Z,99835.71
2023-04-28T08:00:10.008Z,99826.98
2023-04-28T08:02:40.470Z,99819.81
2023-04-28T08:05:09.649Z,99811.86
2023-04-28T08:07:37.573Z,99804.31
2023-04-28T08:10:05.421Z,99798.27
2023-04-28T08:12:33.120Z,99791.08
2023-04-28T08:15:00.762Z,99786.98
2023-04-28T08:17:28.263Z,99782.08
2023-04-28T08:19:55.592Z,99771.39
2023-04-28T08:22:22.929Z,99764.33
2023-04-28T08:24:50.422Z,99753.82
2023-04-28T08:27:17.735Z,99739.48
2023-04-28T08:29:45.080Z,99728.82
2023-04-28T08:32:12.446Z,99724.16
2023-04-28T08:34:39.918Z,99718.54
2023-04-28T08:37:07.286Z,99712.13
2023-04-28T08:39:35.566Z,99706.95
2023-04-28T08:42:04.892Z,99700.12
2023-04-28T08:44:39.711Z,99692.23
2023-04-28T08:47:16.749Z,99688.72
2023-04-28T08:49:44.462Z,99691.25
2023-04-28T08:52:13.253Z,99697.73
2023-04-28T08:54:43.522Z,99698.88
2023-04-28T08:57:11.173Z,99704.07
2023-04-28T08:59:40.474Z,99705.89
2023-04-28T09:02:09.048Z,99714.06
2023-04-28T09:04:37.086Z,99722.92
2023-04-28T09:07:05.184Z,99733.20
2023-04-28T09:09:35.017Z,99744.99
2023-04-28T09:12:05.291Z,99753.62
2023-04-28T09:14:34.614Z,99763.01
2023-04-28T09:17:02.440Z,99778.05
2023-04-28T09:19:34.643Z,99793.08
2023-04-28T09:22:10.555Z,99811.88
2023-04-28T09:24:47.305Z,99830.98
2023-04-28T09:27:15.736Z,99848.00
2023-04-28T09:29:53.091Z,99858.96
2023-04-28T09:32:27.915Z,99875.11
2023-04-28T09:34:59.886Z,99884.95
2023-04-28T09:37:30.899Z,99895.07
2023-04-28T09:40:04.299Z,99900.89
2023-04-28T09:42:34.744Z,99906.25
2023-04-28T09:45:04.802Z,99907.05
2023-04-28T09:47:33.994Z,99910.27
2023-04-28T09:50:06.601Z,99916.46
2023-04-28T09:52:37.683Z,99916.37
2023-04-28T09:55:07.246Z,99918.41
2023-04-28T09:57:35.693Z,99921.16
2023-04-28T10:00:06.766Z,99920.49
2023-04-28T10:02:42.892Z,99922.64
2023-04-28T10:05:11.788Z,99921.29
2023-04-28T10:07:39.587Z,99925.11
2023-04-28T10:10:07.809Z,99931.70
2023-04-28T10:12:35.321Z,99935.78
2023-04-28T10:15:02.320Z,99940.16
2023-04-28T10:17:29.831Z,99948.30
2023-04-28T10:19:57.359Z,99953.36
2023-04-28T10:22:46.430Z,99956.83
2023-04-28T10:25:30.480Z,99961.84
2023-04-28T10:27:58.925Z,99968.30
2023-04-28T10:30:29.472Z,99969.61
2023-04-28T10:33:06.628Z,99975.16
2023-04-28T10:35:36.552Z,99977.81
2023-04-28T10:38:10.813Z,99977.58
2023-04-28T10:40:45.051Z,99986.10
2023-04-28T10:43:13.564Z,99984.72
2023-04-28T10:45:56.102Z,99988.19
2023-04-28T10:48:34.338Z,99986.94
2023-04-28T10:51:05.506Z,99981.71
2023-04-28T10:53:45.633Z,99977.73
2023-04-28T10:56:26.773Z,99971.78
2023-04-28T10:58:58.334Z,99969.52
2023-04-28T11:01:27.442Z,99963.58
2023-04-28T11:04:16.073Z,99964.72
2023-04-28T11:06:46.158Z,99965.22
2023-04-28T11:09:20.258Z,99960.59
2023-04-28T11:12:00.038Z,99954.58
2023-04-28T11:14:31.643Z,99957.75
2023-04-28T11:17:05.661Z,99957.77
2023-04-28T11:19:34.052Z,99954.91
2023-04-28T11:22:03.120Z,99954.88
2023-04-28T11:24:31.138Z,99954.27
2023-04-28T11:26:59.088Z,99955.16
2023-04-28T11:29:34.521Z,99957.85
2023-04-28T11:32:03.883Z,99959.23
2023-04-28T11:34:31.620Z,99958.85
2023-04-28T11:36:59.051Z,99951.39
2023-04-28T11:39:31.040Z,99944.20
2023-04-28T11:41:59.343Z,99931.96
2023-04-28T11:44:28.633Z,99929.08
2023-04-28T11:47:02.547Z,99916.48
2023-04-28T11:49:31.218Z,99909.35
2023-04-28T11:52:00.634Z,99900.54
2023-04-28T11:54:28.905Z,99890.50
2023-04-28T11:56:57.711Z,99888.09
2023-04-28T11:59:29.624Z,99883.63
2023-04-28T12:02:01.877Z,99880.77
2023-04-28T12:04:30.090Z,99879.96
2023-04-28T12:07:10.748Z,99874.04
2023-04-28T12:09:38.915Z,99862.16
2023-04-28T12:12:14.011Z,99858.90
2023-04-28T12:15:07.608Z,99849.11
2023-04-28T12:17:37.092Z,99841.91
2023-04-28T12:20:06.727Z,99836.60
2023-04-28T12:22:49.038Z,99828.52
2023-04-28T12:25:17.759Z,99819.63
2023-04-28T12:28:14.711Z,99815.90
2023-04-28T12:30:43.627Z,99811.53
2023-04-28T12:33:25.348Z,99803.98
2023-04-28T12:35:55.536Z,99796.62
2023-04-28T12:38:24.007Z,99791.92
2023-04-28T12:40:51.466Z,99777.38
2023-04-28T12:43:19.300Z,99764.93
2023-04-28T12:45:46.737Z,99762.55
2023-04-28T12:48:14.210Z,99757.86
2023-04-28T12:50:41.853Z,99759.36
2023-04-28T12:53:09.361Z,99765.34
2023-04-28T12:55:39.126Z,99761.08
2023-04-28T12:58:06.524Z,99757.41
2023-04-28T13:00:33.960Z,99756.52
2023-04-28T13:03:01.659Z,99752.96
2023-04-28T13:05:29.031Z,99748.80
2023-04-28T13:07:56.510Z,99751.15
2023-04-28T13:10:23.994Z,99747.73
2023-04-28T13:12:51.534Z,99743.82
2023-04-28T13:15:19.572Z,99739.82
2023-04-28T13:17:48.841Z,99735.19
2023-04-28T13:20:16.327Z,99730.77
2023-04-28T13:22:43.935Z,99726.98
2023-04-28T13:25:11.780Z,99723.40
2023-04-28T13:27:41.297Z,99711.86
2023-04-28T13:30:11.600Z,99695.94
2023-04-28T13:32:39.147Z,99689.83
2023-04-28T13:35:09.185Z,99691.80
2023-04-28T13:37:42.758Z,99691.34
2023-04-28T13:40:11.941Z,99689.43
2023-04-28T13:42:39.345Z,99680.19
2023-04-28T13:45:07.031Z,99672.38
2023-04-28T13:47:34.643Z,99660.77
2023-04-28T13:50:03.771Z,99651.67
2023-04-28T13:52:31.314Z,99644.13
2023-04-28T13:54:58.687Z,99635.67
2023-04-28T13:57:26.491Z,99621.16
2023-04-28T13:59:54.194Z,99611.30
2023-04-28T14:02:21.770Z,99594.80
2023-04-28T14:04:51.385Z,99581.30
2023-04-28T14:07:19.653Z,99567.00
2023-04-28T14:09:47.586Z,99548.77
2023-04-28T14:12:16.462Z,99530.70
2023-04-28T14:14:44.461Z,99510.65
2023-04-28T14:17:12.704Z,99493.98
2023-04-28T14:19:40.092Z,99467.16
2023-04-28T14:22:07.674Z,99446.16
2023-04-28T14:24:35.819Z,99416.73
2023-04-28T14:27:03.167Z,99393.12
2023-04-28T14:29:30.500Z,99369.72
2023-04-28T14:31:57.949Z,99345.51
2023-04-28T14:34:25.280Z,99319.41
2023-04-28T14:36:53.207Z,99290.98
2023-04-28T14:39:21.060Z,99268.74
2023-04-28T14:41:48.826Z,99242.34
2023-04-28T14:44:16.828Z,99220.23
2023-04-28T14:46:44.544Z,99206.80
2023-04-28T14:49:12.006Z,99192.98
2023-04-28T14:51:39.449Z,99177.31
2023-04-28T14:54:09.289Z,99173.63
2023-04-28T14:56:37.061Z,99164.63
2023-04-28T14:59:05.035Z,99154.60
2023-04-28T15:01:32.871Z,99169.58
2023-04-28T15:04:00.468Z,99191.51
2023-04-28T15:06:28.405Z,99222.25
2023-04-28T15:08:56.135Z,99252.29
2023-04-28T15:11:23.575Z,99280.71
2023-04-28T15:13:50.949Z,99318.15
2023-04-28T15:16:19.182Z,99366.29
2023-04-28T15:18:46.502Z,99415.88
2023-04-28T15:21:13.981Z,99468.33
2023-04-28T15:23:41.481Z,99517.45
2023-04-28T15:26:11.094Z,99560.80
2023-04-28T15:28:38.638Z,99569.73
2023-04-28T15:31:06.420Z,99529.89
2023-04-28T15:33:34.222Z,99477.08
2023-04-28T15:36:01.889Z,99453.60
2023-04-28T15:38:31.770Z,99470.58
2023-04-28T15:40:59.388Z,99475.91
2023-04-28T15:43:30.020Z,99457.25
2023-04-28T15:45:57.934Z,99458.55
2023-04-28T15:48:25.785Z,99394.55
2023-04-28T15:50:55.540Z,99346.31
2023-04-28T15:53:23.263Z,99324.46
2023-04-28T15:55:51.385Z,99309.52
2023-04-28T15:58:19.229Z,99288.77
2023-04-28T16:00:47.316Z,99287.63
2023-04-28T16:03:15.104Z,99279.02
2023-04-28T16:05:42.802Z,99289.61
2023-04-28T16:08:10.453Z,99288.60
2023-04-28T16:10:41.461Z,99292.27
2023-04-28T16:13:11.807Z,99299.33
2023-04-28T16:15:40.177Z,99304.08
2023-04-28T16:18:07.934Z,99305.25
2023-04-28T16:20:35.627Z,99311.37
2023-04-28T16:23:05.988Z,99324.39
2023-04-28T16:25:33.902Z,99320.75
2023-04-28T16:28:01.701Z,99328.19
2023-04-28T16:30:29.454Z,99338.10
2023-04-28T16:32:58.833Z,99359.71
2023-04-28T16:35:26.454Z,99378.33
2023-04-28T16:37:54.030Z,99404.34
2023-04-28T16:40:22.252Z,99395.83
2023-04-28T16:42:49.661Z,99420.41
2023-04-28T16:45:17.521Z,99454.40
2023-04-28T16:47:45.072Z,99488.52
2023-04-28T16:50:14.988Z,99517.78
2023-04-28T16:52:42.565Z,99543.27
2023-04-28T16:55:10.911Z,99555.34
2023-04-28T16:57:38.538Z,99581.42
2023-04-28T17:00:06.833Z,99584.15
2023-04-28T17:02:34.899Z,99605.61
2023-04-28T17:05:02.843Z,99635.89
2023-04-28T17:07:30.242Z,99653.96
2023-04-28T17:10:00.037Z,99667.52
2023-04-28T17:12:27.471Z,99678.77
2023-04-28T17:14:54.943Z,99691.73
2023-04-28T17:17:25.358Z,99685.23
2023-04-28T17:19:53.017Z,99693.88
2023-04-28T17:41:49.393Z,99835.63
2023-04-28T17:44:16.722Z,99851.57
2023-04-28T17:46:44.093Z,99852.35
2023-04-28T17:49:11.478Z,99888.76
2023-04-28T17:51:38.877Z,99892.89
2023-04-28T17:54:09.695Z,99913.48
2023-04-28T17:56:38.481Z,99932.27
2023-04-28T17:59:06.186Z,99945.73
2023-04-28T18:01:35.220Z,99954.30
2023-04-28T18:04:02.569Z,99962.14
2023-04-28T18:06:30.033Z,99975.30
2023-04-28T18:08:57.193Z,99981.21
2023-04-28T18:11:24.506Z,99989.11
2023-04-28T18:13:51.722Z,99993.65
2023-04-28T18:16:18.981Z,99994.07
2023-04-28T18:18:46.598Z,100014.22
2023-04-28T18:21:13.923Z,100021.79
2023-04-28T18:23:41.357Z,100019.34
2023-04-28T18:26:09.002Z,100024.19
2023-04-28T18:28:36.733Z,100019.81
2023-04-28T18:31:07.140Z,100023.28
2023-04-28T18:33:34.370Z,100020.34
2023-04-28T18:36:04.774Z,100022.21
2023-04-28T18:38:34.608Z,100029.48
2023-04-28T18:41:03.283Z,100032.33
2023-04-28T18:43:30.738Z,100036.70
2023-04-28T18:45:57.694Z,100031.52
2023-04-28T18:48:25.780Z,100030.11
2023-04-28T18:50:53.968Z,100031.18
2023-04-28T18:53:20.965Z,100031.73
2023-04-28T18:55:48.585Z,100030.98
2023-04-28T18:58:15.899Z,100033.64
2023-04-28T19:00:46.025Z,100039.64
2023-04-28T19:03:13.787Z,100046.10
2023-04-28T19:05:44.821Z,100039.46
2023-04-28T19:08:12.382Z,100036.89
2023-04-28T19:10:39.720Z,100042.86
2023-04-28T19:13:07.122Z,100033.02
2023-04-28T19:15:35.160Z,100047.63
2023-04-28T19:18:02.549Z,100048.29
2023-04-28T19:20:29.850Z,100045.82
2023-04-28T19:22:57.145Z,100046.89
2023-04-28T19:25:25.310Z,100046.35
2023-04-28T19:27:52.760Z,100053.77
2023-04-28T19:30:20.250Z,100057.44
2023-04-28T19:32:47.716Z,100056.11
2023-04-28T19:35:16.284Z,100063.88
2023-04-28T19:37:44.373Z,100066.41
2023-04-28T19:40:12.843Z,100068.63
2023-04-28T19:42:40.202Z,100065.42
2023-04-28T19:45:10.449Z,100061.36
2023-04-28T19:47:37.970Z,100060.05
2023-04-28T19:50:06.015Z,100065.40
2023-04-28T19:52:33.810Z,100067.98
2023-04-28T19:55:02.146Z,100070.86
2023-04-28T19:57:29.392Z,100074.84
2023-04-28T19:59:56.638Z,100072.98
2023-04-28T20:02:24.111Z,100069.30
2023-04-28T20:04:51.421Z,100070.42
2023-04-28T20:07:18.820Z,100064.80
2023-04-28T20:09:46.769Z,100058.23
2023-04-28T20:12:15.454Z,100065.54
2023-04-28T20:14:42.764Z,100058.48
2023-04-28T20:17:10.071Z,100062.64
2023-04-28T20:19:37.564Z,100064.56
2023-04-28T20:22:08.178Z,100061.60
2023-04-28T20:24:36.080Z,100056.34
2023-04-28T20:27:03.811Z,100056.91
2023-04-28T20:29:34.473Z,100060.51
2023-04-28T20:32:02.652Z,100062.46
2023-04-28T20:34:30.943Z,100066.80
2023-04-28T20:36:59.717Z,100068.20
2023-04-28T20:39:27.047Z,100073.60
2023-04-28T20:41:54.209Z,100071.09
2023-04-28T20:44:22.226Z,100069.94
2023-04-28T20:46:51.374Z,100077.98
2023-04-28T20:49:18.304Z,100080.08
2023-04-28T20:51:48.160Z,100086.71
2023-04-28T20:54:15.281Z,100089.39
2023-04-28T20:56:43.125Z,100094.39
2023-04-28T20:59:10.335Z,100093.38
2023-04-28T21:01:37.578Z,100105.07
2023-04-28T21:04:04.937Z,100113.54
2023-04-28T21:06:32.280Z,100119.55
2023-04-28T21:08:59.502Z,100125.16
2023-04-28T21:11:27.258Z,100122.39
2023-04-28T21:13:54.442Z,100118.70
2023-04-28T21:16:21.903Z,100109.56
2023-04-28T21:18:49.982Z,100119.05
2023-04-28T21:21:18.562Z,100115.94
2023-04-28T21:23:45.860Z,100118.36
2023-04-28T21:26:13.513Z,100122.68
2023-04-28T21:28:41.792Z,100128.69
2023-04-28T21:31:10.070Z,100124.95
2023-04-28T21:33:37.398Z,100128.95
2023-04-28T21:36:09.185Z,100134.09
2023-04-28T21:38:37.267Z,100133.21
2023-04-28T21:41:04.968Z,100138.23
2023-04-28T21:43:32.148Z,100141.34
2023-04-28T21:45:59.488Z,100146.79
2023-04-28T21:48:27.122Z,100151.55
2023-04-28T21:50:54.302Z,100158.17
2023-04-28T21:53:21.365Z,100173.92
2023-04-28T21:55:48.509Z,100176.52
2023-04-28T21:58:15.883Z,100184.02
2023-04-28T22:00:43.988Z,100190.92
2023-04-28T22:03:11.534Z,100192.52
2023-04-28T22:05:40.375Z,100195.42
2023-04-28T22:08:07.929Z,100205.68
2023-04-28T22:10:35.165Z,100211.10
2023-04-28T22:13:02.612Z,100219.66
2023-04-28T22:15:29.950Z,100226.98
2023-04-28T22:17:58.420Z,100227.36
2023-04-28T22:20:25.630Z,100230.80
2023-04-28T22:22:53.541Z,100237.82
2023-04-28T22:25:21.516Z,100242.15
2023-04-28T22:27:48.644Z,100250.46
2023-04-28T22:30:16.077Z,100257.66
2023-04-28T22:32:44.993Z,100270.41
2023-04-28T22:35:17.026Z,100278.73
2023-04-28T22:37:44.355Z,100285.65
2023-04-28T22:40:11.830Z,100297.60
2023-04-28T22:42:40.037Z,100310.91
2023-04-28T22:45:07.905Z,100322.95
2023-04-28T22:47:35.391Z,100332.64
2023-04-28T22:50:06.702Z,100340.28
2023-04-28T22:52:34.427Z,100347.99
2023-04-28T22:55:01.695Z,100343.92
2023-04-28T22:57:29.157Z,100352.83
2023-04-28T22:59:56.365Z,100347.35
2023-04-28T23:02:23.878Z,100343.70
2023-04-28T23:04:51.575Z,100340.60
2023-04-28T23:07:18.924Z,100344.02
2023-04-28T23:09:46.250Z,100365.52
2023-04-28T23:12:13.570Z,100369.85
2023-04-28T23:14:40.669Z,100371.01
2023-04-28T23:17:07.910Z,100369.56
2023-04-28T23:19:39.584Z,100373.13
2023-04-28T23:22:07.774Z,100383.12
2023-04-28T23:24:37.445Z,100398.79
2023-04-28T23:27:04.713Z,100398.39
2023-04-28T23:29:32.290Z,100395.58
2023-04-28T23:31:59.764Z,100393.35
2023-04-28T23:34:27.237Z,100413.97
2023-04-28T23:36:54.498Z,100414.52
2023-04-28T23:39:21.638Z,100409.05
2023-04-28T23:41:48.812Z,100411.30
2023-04-28T23:44:16.072Z,100409.14
2023-04-28T23:46:43.657Z,100405.76
2023-04-28T23:49:10.889Z,100406.95
2023-04-28T23:51:37.990Z,100406.61
2023-04-28T23:54:05.133Z,100400.77
2023-04-28T23:56:32.227Z,100397.67
2023-04-28T23:58:59.789Z,100395.98
